Time Latitude Longitude Accuracy (66% radius in meters) Altitude (meters) Speed (km/hour) Bearing (degrees) Battery (%) GPS flag
11:30:36 31.935978 34.949413 3 124.54935402713 0.054728630930185 189.21614074707 56 1 delete
11:30:26 31.935995 34.949415 3 124.56339230302 0.14690782129765 189.21614074707 56 1 delete
11:30:19 31.936011 34.949425 3 124.6194550812 0.1544386446476 189.21614074707 56 1 delete
11:30:15 31.936015 34.949431 3 124.68914887204 0.19687581062317 164.24456787109 56 1 delete
11:30:05 31.936067 34.949466 3 124.80109338603 0.059035491198301 179.61558532715 56 1 delete
11:29:55 31.936078 34.949485 3 124.84886984394 0.21392641961575 158.21034240723 56 1 delete
11:29:45 31.936082 34.949498 3 124.85673021863 0.21086339652538 97.840072631836 56 1 delete
11:29:44 31.936087 34.949484 3 124.85665976999 0.3239868581295 97.840072631836 56 1 delete
11:29:34 31.936099 34.949391 4 124.86039594184 0.099675849080086 123.60426330566 56 1 delete
11:29:31 31.936103 34.949374 4 124.86194252839 0.098137065768242 123.60426330566 56 1 delete
11:29:24 31.936116 34.949349 4 124.86819375215 0.19301533699036 95.330627441406 56 1 delete
11:29:14 31.936146 34.949281 4 124.88594357292 0.042563434690237 253.31504821777 56 1 delete
11:29:10 31.936148 34.949282 4 124.88680025565 0.40966066718102 253.31504821777 56 1 delete
11:29:03 31.936156 34.949389 4 124.90751679229 0.90546268224716 300.07104492188 56 1 delete
11:28:53 31.936131 34.949405 4 124.92432145192 0.0079264435917139 346.93911743164 56 1 delete
11:28:42 31.936144 34.949366 4 124.93431960884 0.17153385281563 359.1364440918 56 1 delete
11:28:32 31.936147 34.949313 3 124.95950398781 0.36495479941368 359.1364440918 56 1 delete
11:28:22 31.936152 34.949320 3 125.0076427661 0.026672409847379 353.01321411133 56 1 delete
11:28:15 31.936137 34.949392 4 125.04139285482 0.21065574884415 353.01321411133 56 1 delete
11:28:12 31.936052 34.949429 4 125.04785474493 0.11279032379389 105.28363800049 56 1 delete
11:28:01 31.936048 34.949498 4 125.04431883633 0.18120640516281 105.28363800049 56 1 delete
11:27:51 31.936038 34.949501 4 125.027553965 0.13279666006565 105.28363800049 56 1 delete
11:27:40 31.936034 34.949496 4 125.02190588842 0.025519447401166 105.28363800049 56 1 delete
11:27:30 31.936035 34.949488 4 125.00780953779 0.012933969497681 134.66479492188 56 1 delete
11:27:09 31.936030 34.949498 4 124.99145497226 0.19461376965046 134.66479492188 56 1 delete
11:26:59 31.936019 34.949488 4 124.9606701823 0.12267106771469 134.66479492188 56 1 delete
11:26:48 31.936020 34.949484 4 124.95416804488 0.066322200000286 134.66479492188 56 1 delete
11:26:38 31.936021 34.949479 4 124.94425340145 0.013258919119835 134.66479492188 56 1 delete
11:26:28 31.936023 34.949466 4 124.93647838882 0.17841443419456 134.66479492188 56 1 delete
11:26:23 31.936029 34.949462 4 124.93023875738 0.241359770298 134.66479492188 56 1 delete
11:26:18 31.936028 34.949439 4 124.92042778569 0.036138143390417 126.16591644287 56 1 delete
11:26:07 31.936023 34.949437 4 124.91814376017 0.039770282804966 126.16591644287 56 1 delete
11:25:57 31.936015 34.949409 4 124.90468774507 0.17753325402737 59.421634674072 56 1 delete
11:25:47 31.936020 34.949397 4 124.89924223804 0.031641524285078 59.421634674072 56 1 delete
11:25:36 31.936018 34.949389 4 124.8994976556 0.054530739784241 59.421634674072 56 1 delete
11:25:26 31.936017 34.949385 4 124.90137929252 0.023568196222186 59.421634674072 56 1 delete
11:25:15 31.936019 34.949376 4 124.90171384838 0.053083773702383 59.421634674072 56 1 delete
11:25:05 31.936023 34.949371 4 124.90082214622 0.01916709728539 59.421634674072 56 1 delete
11:24:55 31.936024 34.949361 4 124.89759399378 0.046640183776617 59.421634674072 56 1 delete
11:24:47 31.936026 34.949355 4 124.89650945319 0.011833651922643 59.421634674072 56 1 delete
11:24:44 31.936027 34.949353 4 124.89643873178 0.024342922493815 59.421634674072 56 1 delete
11:24:34 31.936034 34.949346 4 124.89547078686 0.038801062852144 59.421634674072 56 1 delete
11:24:24 31.936042 34.949335 4 124.89424078469 0.033222243189812 59.421634674072 56 1 delete
11:24:13 31.936062 34.949318 4 124.88633888949 0.05686217546463 59.421634674072 56 1 delete
11:24:03 31.936072 34.949299 4 124.87736940985 0.025079764425755 59.421634674072 56 1 delete
11:23:53 31.936078 34.949281 4 124.86907158028 0.066755376756191 59.421634674072 56 1 delete
11:23:42 31.936069 34.949223 4 124.84578817641 0.34601119160652 57.505214691162 56 1 delete
11:23:32 31.936071 34.949212 4 124.82203004109 0.028278894722462 322.55426025391 56 1 delete
11:23:21 31.936073 34.949211 4 124.80725591679 0.010365448892117 322.55426025391 56 1 delete
11:23:11 31.936071 34.949211 4 124.79963824699 0.013199214823544 322.55426025391 56 1 delete